createdAt,value
2022-10-06T00:00:56.484Z,25.08
2022-10-06T00:03:44.580Z,20.15
2022-10-06T00:06:31.489Z,14.77
2022-10-06T00:09:12.488Z,20.60
2022-10-06T00:11:59.473Z,17.77
2022-10-06T00:14:40.471Z,17.13
2022-10-06T00:17:27.455Z,15.23
2022-10-06T00:20:01.536Z,15.80
2022-10-06T00:22:50.474Z,16.95
2022-10-06T00:25:28.286Z,14.70
2022-10-06T00:28:15.636Z,14.18
2022-10-06T00:30:51.220Z,15.68
2022-10-06T00:33:38.479Z,16.25
2022-10-06T00:36:12.542Z,17.33
2022-10-06T00:39:00.501Z,20.75
2022-10-06T00:41:34.560Z,15.00
2022-10-06T00:44:21.492Z,19.08
2022-10-06T00:46:57.581Z,19.42
2022-10-06T00:49:46.471Z,17.48
2022-10-06T00:52:25.591Z,14.77
2022-10-06T00:55:15.501Z,13.07
2022-10-06T00:57:49.568Z,15.70
2022-10-06T01:00:37.498Z,13.75
2022-10-06T01:03:13.550Z,19.13
2022-10-06T01:06:03.518Z,15.73
2022-10-06T01:08:44.555Z,15.73
2022-10-06T01:11:24.511Z,13.85
2022-10-06T01:14:05.537Z,16.15
2022-10-06T01:16:48.514Z,12.40
2022-10-06T01:19:40.620Z,15.60
2022-10-06T01:22:23.473Z,16.02
2022-10-06T01:25:04.556Z,18.45
2022-10-06T01:27:47.491Z,17.55
2022-10-06T01:30:53.688Z,14.00
2022-10-06T01:33:34.491Z,17.90
2022-10-06T01:36:15.574Z,14.95
2022-10-06T01:38:55.501Z,18.70
2022-10-06T01:41:43.494Z,19.75
2022-10-06T01:44:23.497Z,17.75
2022-10-06T01:47:11.484Z,15.82
2022-10-06T01:49:45.405Z,13.95
2022-10-06T01:52:33.490Z,14.07
2022-10-06T01:55:07.625Z,18.77
2022-10-06T01:57:56.499Z,14.93
2022-10-06T02:00:30.626Z,21.05
2022-10-06T02:03:18.504Z,18.75
2022-10-06T02:05:56.442Z,17.63
2022-10-06T02:08:44.488Z,16.48
2022-10-06T02:11:19.517Z,14.95
2022-10-06T02:14:08.486Z,23.77
2022-10-06T02:16:43.621Z,15.15
2022-10-06T02:19:31.503Z,15.18
2022-10-06T02:22:05.446Z,15.60
2022-10-06T02:24:53.502Z,14.40
2022-10-06T02:27:27.421Z,13.48
2022-10-06T02:30:15.508Z,14.45
2022-10-06T02:33:09.498Z,10.98
2022-10-06T02:38:31.997Z,15.75
2022-10-06T02:41:06.582Z,14.70
2022-10-06T02:43:54.517Z,14.68
2022-10-06T02:46:28.713Z,15.88
2022-10-06T02:49:15.531Z,14.73
2022-10-06T02:51:56.524Z,14.48
2022-10-06T02:54:44.501Z,17.95
2022-10-06T02:57:18.562Z,11.35
2022-10-06T03:00:05.522Z,13.48
2022-10-06T03:02:39.716Z,14.25
2022-10-06T03:05:41.492Z,13.38
2022-10-06T03:08:35.516Z,12.85
2022-10-06T03:11:23.530Z,14.20
2022-10-06T03:13:57.731Z,14.82
2022-10-06T03:16:45.513Z,12.43
2022-10-06T03:19:19.767Z,17.52
2022-10-06T03:22:06.519Z,11.52
2022-10-06T03:24:47.503Z,11.70
2022-10-06T03:27:34.499Z,12.60
2022-10-06T03:30:08.586Z,16.48
2022-10-06T03:32:56.506Z,11.77
2022-10-06T03:35:30.603Z,14.52
2022-10-06T03:38:17.513Z,12.73
2022-10-06T03:40:51.547Z,13.35
2022-10-06T03:43:39.515Z,9.43
2022-10-06T03:46:13.667Z,13.55
2022-10-06T03:49:01.523Z,12.15
2022-10-06T03:51:43.600Z,17.70
2022-10-06T03:54:24.568Z,12.10
2022-10-06T03:57:04.650Z,9.82
2022-10-06T03:59:45.533Z,9.30
2022-10-06T04:02:25.678Z,7.50
2022-10-06T04:05:06.559Z,10.38
2022-10-06T04:07:53.530Z,10.15
2022-10-06T04:10:28.019Z,10.82
2022-10-06T04:13:14.505Z,9.23
2022-10-06T04:15:55.564Z,10.43
2022-10-06T04:18:42.494Z,10.15
2022-10-06T04:21:16.617Z,9.52
2022-10-06T04:24:05.504Z,13.63
2022-10-06T04:26:58.556Z,8.40
2022-10-06T04:29:38.556Z,9.27
2022-10-06T04:32:19.659Z,6.13
2022-10-06T04:34:59.518Z,10.18
2022-10-06T04:37:47.542Z,8.30
2022-10-06T04:40:27.565Z,5.18
2022-10-06T04:43:09.099Z,6.55
2022-10-06T04:45:48.578Z,7.40
2022-10-06T04:48:29.925Z,7.22
2022-10-06T04:51:12.528Z,10.32
2022-10-06T04:53:53.604Z,10.20
2022-10-06T04:56:35.557Z,6.78
2022-10-06T04:59:16.606Z,7.97
2022-10-06T05:01:56.594Z,9.05
2022-10-06T05:04:37.679Z,10.60
2022-10-06T05:07:17.541Z,9.27
2022-10-06T05:09:58.593Z,10.27
2022-10-06T05:12:38.556Z,6.18
2022-10-06T05:15:19.616Z,7.45
2022-10-06T05:18:00.547Z,5.50
2022-10-06T05:20:41.665Z,8.25
2022-10-06T05:23:21.525Z,8.73
2022-10-06T05:26:03.614Z,8.77
2022-10-06T05:28:43.568Z,7.38
2022-10-06T05:31:33.569Z,6.30
2022-10-06T05:34:07.635Z,7.97
2022-10-06T05:36:55.536Z,9.23
2022-10-06T05:39:29.501Z,8.18
2022-10-06T05:42:17.525Z,7.68
2022-10-06T05:44:51.518Z,6.50
2022-10-06T05:47:39.568Z,6.82
2022-10-06T05:50:33.512Z,9.65
2022-10-06T05:53:20.574Z,4.70
2022-10-06T05:55:54.601Z,7.38
2022-10-06T05:58:43.538Z,6.20
2022-10-06T06:01:25.793Z,6.93
2022-10-06T06:04:09.521Z,5.70
2022-10-06T06:06:52.036Z,7.70
2022-10-06T06:09:34.545Z,6.82
2022-10-06T06:12:16.177Z,8.02
2022-10-06T06:15:15.533Z,22.17
2022-10-06T06:17:56.646Z,12.50
2022-10-06T06:20:37.535Z,8.95
2022-10-06T06:23:18.601Z,7.50
2022-10-06T06:26:06.547Z,12.13
2022-10-06T06:28:48.616Z,6.63
2022-10-06T06:31:32.662Z,10.77
2022-10-06T06:34:13.611Z,6.95
2022-10-06T06:37:06.744Z,7.55
2022-10-06T06:39:49.624Z,4.53
2022-10-06T06:42:29.525Z,7.00
2022-10-06T06:45:10.676Z,4.50
2022-10-06T06:47:50.548Z,6.93
2022-10-06T06:50:31.784Z,7.10
2022-10-06T06:53:16.069Z,9.40
2022-10-06T06:55:58.039Z,5.82
2022-10-06T06:58:39.563Z,2.60
2022-10-06T07:01:24.705Z,3.03
2022-10-06T07:04:12.570Z,6.57
2022-10-06T07:06:57.970Z,3.67
2022-10-06T07:09:38.559Z,3.83
2022-10-06T07:12:19.685Z,2.97
2022-10-06T07:15:19.552Z,4.35
2022-10-06T07:18:19.365Z,3.83
2022-10-06T07:21:18.573Z,6.95
2022-10-06T07:24:18.191Z,4.47
2022-10-06T07:26:58.557Z,2.78
2022-10-06T07:29:39.624Z,5.43
2022-10-06T07:32:20.559Z,7.15
2022-10-06T07:35:04.279Z,8.45
2022-10-06T07:37:45.592Z,2.28
2022-10-06T07:40:33.558Z,6.53
2022-10-06T07:43:13.566Z,3.30
2022-10-06T07:46:01.587Z,1.40
2022-10-06T07:48:41.561Z,2.50
2022-10-06T07:51:33.547Z,4.13
2022-10-06T07:54:08.904Z,3.80
2022-10-06T07:56:56.576Z,2.28
2022-10-06T07:59:30.548Z,5.00
2022-10-06T08:02:18.580Z,4.47
2022-10-06T08:04:52.828Z,4.57
2022-10-06T08:07:40.557Z,5.53
2022-10-06T08:10:15.034Z,3.15
2022-10-06T08:13:02.555Z,2.95
2022-10-06T08:15:36.546Z,4.93
2022-10-06T08:18:44.958Z,3.53
2022-10-06T08:21:19.744Z,3.83
2022-10-06T08:24:08.588Z,3.35
2022-10-06T08:26:44.030Z,4.30
2022-10-06T08:29:31.589Z,2.42
2022-10-06T08:32:05.605Z,4.45
2022-10-06T08:34:53.839Z,0.90
2022-10-06T08:37:28.593Z,3.60
2022-10-06T08:40:16.554Z,2.13
2022-10-06T08:42:56.751Z,3.45
2022-10-06T08:45:52.600Z,2.67
2022-10-06T08:48:30.033Z,8.63
2022-10-06T08:51:28.590Z,3.97
2022-10-06T08:54:19.512Z,3.22
2022-10-06T08:57:25.564Z,3.25
2022-10-06T09:00:24.594Z,4.88
2022-10-06T09:03:19.596Z,8.02
2022-10-06T09:06:21.551Z,1.20
2022-10-06T09:09:04.587Z,5.13
2022-10-06T09:12:08.546Z,0.93
2022-10-06T09:15:01.595Z,3.22
2022-10-06T09:17:41.641Z,4.82
2022-10-06T09:20:38.595Z,3.60
2022-10-06T09:23:13.644Z,2.50
2022-10-06T09:26:04.564Z,2.75
2022-10-06T09:28:38.701Z,2.85
2022-10-06T09:31:36.594Z,6.22
2022-10-06T09:34:15.653Z,2.67
2022-10-06T09:37:06.579Z,3.90
2022-10-06T09:39:41.862Z,7.78
2022-10-06T09:42:41.643Z,5.47
2022-10-06T09:45:23.149Z,3.50
2022-10-06T09:48:24.602Z,3.50
2022-10-06T09:51:14.761Z,3.42
2022-10-06T09:54:17.584Z,4.80
2022-10-06T09:56:54.107Z,2.20
2022-10-06T09:59:49.602Z,2.15
2022-10-06T10:02:36.724Z,5.53
2022-10-06T10:05:27.615Z,2.83
2022-10-06T10:08:13.668Z,3.92
2022-10-06T10:11:38.591Z,3.63
2022-10-06T10:14:30.589Z,3.70
2022-10-06T10:17:22.588Z,4.57
2022-10-06T10:20:05.592Z,4.75
2022-10-06T10:22:53.599Z,0.80
2022-10-06T10:25:43.615Z,3.78
2022-10-06T10:28:37.669Z,8.68
2022-10-06T10:31:44.674Z,8.48
2022-10-06T10:34:44.608Z,11.65
2022-10-06T10:37:32.587Z,3.58
2022-10-06T10:40:16.601Z,9.30
2022-10-06T10:43:13.594Z,3.30
2022-10-06T10:45:54.425Z,12.52
2022-10-06T10:48:41.585Z,9.07
2022-10-06T10:51:18.668Z,7.88
2022-10-06T10:54:16.618Z,9.43
2022-10-06T10:56:52.613Z,7.70
2022-10-06T10:59:45.626Z,11.50
2022-10-06T11:02:20.794Z,3.03
2022-10-06T11:05:19.637Z,2.63
2022-10-06T11:08:02.204Z,3.65
2022-10-06T11:11:01.614Z,4.90
2022-10-06T11:13:45.686Z,7.43
2022-10-06T11:16:45.623Z,5.22
2022-10-06T11:19:22.713Z,7.27
2022-10-06T11:22:16.614Z,9.77
2022-10-06T11:25:13.686Z,5.20
2022-10-06T11:28:06.628Z,6.82
2022-10-06T11:30:43.697Z,3.67
2022-10-06T11:34:06.619Z,6.55
2022-10-06T11:36:55.692Z,8.35
2022-10-06T11:40:04.619Z,5.10
2022-10-06T11:42:46.266Z,2.92
2022-10-06T11:46:01.662Z,5.65
2022-10-06T11:48:37.892Z,6.88
2022-10-06T11:51:31.623Z,2.05
2022-10-06T11:54:05.680Z,8.45
2022-10-06T11:56:53.617Z,4.90
2022-10-06T11:59:31.747Z,5.18
2022-10-06T12:02:38.691Z,7.82
2022-10-06T12:08:23.634Z,2.17
2022-10-06T12:11:05.230Z,7.53
2022-10-06T12:17:12.866Z,8.00
2022-10-06T12:20:05.594Z,6.53
2022-10-06T12:22:51.706Z,6.95
2022-10-06T12:25:43.616Z,16.15
2022-10-06T12:28:33.719Z,6.32
2022-10-06T12:31:18.715Z,4.32
2022-10-06T12:34:06.603Z,7.78
2022-10-06T12:36:46.694Z,8.85
2022-10-06T12:39:31.885Z,5.18
2022-10-06T12:42:24.630Z,7.25
2022-10-06T12:45:05.700Z,6.18
2022-10-06T12:47:48.645Z,14.68
2022-10-06T12:50:33.680Z,3.58
2022-10-06T12:53:20.626Z,6.68
2022-10-06T12:56:03.693Z,4.03
2022-10-06T12:58:43.637Z,6.47
2022-10-06T13:01:24.854Z,4.05
2022-10-06T13:04:04.638Z,5.65
2022-10-06T13:06:45.678Z,4.72
2022-10-06T13:09:32.621Z,4.18
2022-10-06T13:12:26.618Z,6.45
2022-10-06T13:15:26.647Z,7.45
2022-10-06T13:18:23.617Z,12.40
2022-10-06T13:21:17.637Z,4.10
2022-10-06T13:24:11.625Z,3.72
2022-10-06T13:26:59.631Z,9.68
2022-10-06T13:29:33.691Z,4.88
2022-10-06T13:32:25.619Z,5.43
2022-10-06T13:35:00.073Z,4.25
2022-10-06T13:37:47.652Z,12.93
2022-10-06T13:40:43.440Z,4.97
2022-10-06T13:43:34.109Z,7.97
2022-10-06T13:46:13.893Z,7.88
2022-10-06T13:49:05.639Z,4.90
2022-10-06T13:51:39.683Z,7.38
2022-10-06T13:54:30.664Z,4.32
2022-10-06T13:57:04.741Z,3.08
2022-10-06T13:59:52.711Z,3.47
2022-10-06T14:02:28.153Z,1.85
2022-10-06T14:05:33.649Z,11.27
2022-10-06T14:08:08.684Z,4.28
2022-10-06T14:11:01.644Z,5.15
2022-10-06T14:13:37.726Z,5.72
2022-10-06T14:16:27.633Z,5.03
2022-10-06T14:19:08.708Z,2.53
2022-10-06T14:21:55.666Z,8.07
2022-10-06T14:24:34.053Z,4.40
2022-10-06T14:27:20.653Z,3.65
2022-10-06T14:29:54.723Z,5.72
2022-10-06T14:32:45.669Z,5.15
2022-10-06T14:35:19.713Z,5.00
2022-10-06T14:38:07.638Z,6.88
2022-10-06T14:40:41.729Z,4.25
2022-10-06T14:43:28.627Z,6.78
2022-10-06T14:46:10.713Z,7.13
2022-10-06T14:49:05.670Z,9.90
2022-10-06T14:52:02.672Z,11.00
2022-10-06T14:54:50.649Z,6.13
2022-10-06T14:57:24.746Z,8.35
2022-10-06T15:00:12.658Z,11.50
2022-10-06T15:02:53.713Z,15.75
2022-10-06T15:05:40.664Z,14.57
2022-10-06T15:08:24.798Z,11.25
2022-10-06T15:11:18.675Z,15.38
2022-10-06T15:14:06.660Z,13.93
2022-10-06T15:16:42.485Z,9.75
2022-10-06T15:19:29.661Z,13.10
2022-10-06T15:22:05.865Z,10.82
2022-10-06T15:24:56.662Z,8.43
2022-10-06T15:27:49.440Z,11.95
2022-10-06T15:30:35.652Z,11.02
2022-10-06T15:33:09.742Z,17.38
2022-10-06T15:36:10.647Z,11.63
2022-10-06T15:38:44.748Z,11.85
2022-10-06T15:41:32.662Z,13.20
2022-10-06T15:44:06.803Z,10.00
2022-10-06T15:46:58.771Z,9.57
2022-10-06T15:49:40.290Z,11.70
2022-10-06T15:52:26.664Z,7.75
2022-10-06T15:55:00.808Z,10.25
2022-10-06T15:57:47.683Z,16.67
2022-10-06T16:00:21.722Z,7.80
2022-10-06T16:03:09.708Z,13.38
2022-10-06T16:05:49.602Z,7.75
2022-10-06T16:08:39.670Z,5.25
2022-10-06T16:11:20.752Z,10.27
2022-10-06T16:14:08.670Z,6.45
2022-10-06T16:16:43.835Z,6.75
2022-10-06T16:19:31.694Z,9.82
2022-10-06T16:22:07.729Z,9.23
2022-10-06T16:24:54.703Z,4.10
2022-10-06T16:27:33.213Z,10.70
2022-10-06T16:30:20.692Z,8.02
2022-10-06T16:32:54.733Z,9.05
2022-10-06T16:35:41.657Z,5.40
2022-10-06T16:38:15.766Z,7.38
2022-10-06T16:41:03.667Z,12.35
2022-10-06T16:43:45.706Z,8.35
2022-10-06T16:46:42.761Z,10.20
2022-10-06T16:49:30.687Z,12.55
2022-10-06T16:52:04.753Z,12.55
2022-10-06T16:54:51.677Z,7.00
2022-10-06T16:57:32.688Z,12.20
2022-10-06T17:00:20.681Z,5.53
2022-10-06T17:02:54.770Z,13.20
2022-10-06T17:05:43.685Z,8.32
2022-10-06T17:08:17.804Z,11.05
2022-10-06T17:11:14.678Z,5.03
2022-10-06T17:14:02.691Z,13.70
2022-10-06T17:16:44.752Z,13.50
2022-10-06T17:19:26.762Z,12.70
2022-10-06T17:22:06.676Z,14.77
2022-10-06T17:24:47.750Z,12.48
2022-10-06T17:27:28.658Z,5.95
2022-10-06T17:30:16.689Z,9.55
2022-10-06T17:32:50.670Z,12.63
2022-10-06T17:35:38.709Z,13.20
2022-10-06T17:38:12.770Z,8.30
2022-10-06T17:41:00.702Z,9.77
2022-10-06T17:43:39.054Z,16.55
2022-10-06T17:46:26.701Z,14.07
2022-10-06T17:49:07.493Z,15.38
2022-10-06T17:51:57.732Z,13.60
2022-10-06T17:54:34.350Z,13.75
2022-10-06T17:57:21.693Z,20.02
2022-10-06T17:59:59.039Z,21.00
2022-10-06T18:02:46.743Z,11.70
2022-10-06T18:05:20.603Z,16.88
2022-10-06T18:08:08.696Z,15.57
2022-10-06T18:11:06.783Z,27.60
2022-10-06T18:13:55.695Z,11.52
2022-10-06T18:16:36.511Z,16.35
2022-10-06T18:19:25.678Z,10.85
2022-10-06T18:22:01.250Z,12.98
2022-10-06T18:24:48.709Z,11.70
2022-10-06T18:27:24.193Z,12.43
2022-10-06T18:30:11.707Z,16.13
2022-10-06T18:38:54.690Z,11.02
2022-10-06T18:41:36.689Z,13.27
2022-10-06T18:44:16.698Z,13.27
2022-10-06T18:47:16.305Z,17.45
2022-10-06T18:49:59.705Z,15.80
2022-10-06T18:52:43.592Z,13.43
2022-10-06T18:55:24.698Z,13.93
2022-10-06T18:58:06.490Z,12.25
2022-10-06T19:00:46.737Z,15.60
2022-10-06T19:03:28.287Z,13.35
2022-10-06T19:06:08.707Z,15.40
2022-10-06T19:08:49.760Z,11.52
2022-10-06T19:11:48.698Z,11.77
2022-10-06T19:14:42.972Z,16.20
2022-10-06T19:17:24.700Z,12.52
2022-10-06T19:20:05.835Z,14.63
2022-10-06T19:22:46.702Z,20.13
2022-10-06T19:25:34.700Z,25.05
2022-10-06T19:28:08.902Z,21.77
2022-10-06T19:30:56.732Z,19.65
2022-10-06T19:33:31.485Z,14.23
2022-10-06T19:36:19.706Z,22.05
2022-10-06T19:38:57.015Z,17.02
2022-10-06T19:44:42.891Z,11.85
2022-10-06T19:47:30.730Z,15.35
2022-10-06T19:50:11.578Z,25.95
2022-10-06T19:53:00.738Z,13.30
2022-10-06T19:55:34.748Z,11.13
2022-10-06T19:58:22.708Z,14.60
2022-10-06T20:00:56.631Z,15.57
2022-10-06T20:03:46.769Z,16.10
2022-10-06T20:06:41.707Z,31.40
2022-10-06T20:09:30.746Z,19.17
2022-10-06T20:12:12.778Z,16.20
2022-10-06T20:15:07.702Z,17.83
2022-10-06T20:17:54.721Z,28.60
2022-10-06T20:20:35.727Z,26.20
2022-10-06T20:23:22.722Z,23.92
2022-10-06T20:25:56.835Z,32.28
2022-10-06T20:28:44.810Z,21.83
2022-10-06T20:31:33.049Z,13.10
2022-10-06T20:34:21.756Z,14.07
2022-10-06T20:36:59.681Z,21.30
2022-10-06T20:40:05.712Z,30.33
2022-10-06T20:42:44.695Z,19.80
2022-10-06T20:45:31.716Z,21.45
2022-10-06T20:48:05.800Z,18.25
2022-10-06T20:50:52.730Z,17.33
2022-10-06T20:53:26.785Z,10.18
2022-10-06T20:56:14.738Z,17.98
2022-10-06T20:58:50.062Z,19.75
2022-10-06T21:01:36.777Z,13.98
2022-10-06T21:04:17.820Z,19.63
2022-10-06T21:06:57.804Z,12.88
2022-10-06T21:09:38.830Z,11.60
2022-10-06T21:12:21.787Z,13.30
2022-10-06T21:15:03.787Z,22.95
2022-10-06T21:17:43.989Z,25.92
2022-10-06T21:20:31.760Z,21.35
2022-10-06T21:23:11.815Z,16.30
2022-10-06T21:25:52.853Z,28.65
2022-10-06T21:28:32.791Z,17.95
2022-10-06T21:31:21.796Z,19.30
2022-10-06T21:33:56.139Z,20.73
2022-10-06T21:36:43.809Z,16.65
2022-10-06T21:39:17.752Z,21.02
2022-10-06T21:42:05.772Z,20.67
2022-10-06T21:44:39.671Z,18.13
2022-10-06T21:47:27.792Z,22.90
2022-10-06T21:50:01.704Z,24.60
2022-10-06T21:52:49.763Z,16.15
2022-10-06T21:55:23.731Z,15.07
2022-10-06T21:58:11.764Z,15.10
2022-10-06T22:01:05.754Z,12.88
2022-10-06T22:03:53.773Z,14.60
2022-10-06T22:06:27.827Z,12.70
2022-10-06T22:09:15.781Z,13.15
2022-10-06T22:11:49.837Z,20.38
2022-10-06T22:14:36.786Z,17.45
2022-10-06T22:17:10.899Z,16.40
2022-10-06T22:19:57.753Z,18.80
2022-10-06T22:22:31.898Z,22.83
2022-10-06T22:25:19.749Z,22.15
2022-10-06T22:27:53.866Z,18.00
2022-10-06T22:30:40.766Z,18.95
2022-10-06T22:33:21.760Z,16.13
2022-10-06T22:36:16.763Z,15.10
2022-10-06T22:39:04.767Z,11.02
2022-10-06T22:41:45.801Z,11.93
2022-10-06T22:44:32.766Z,11.18
2022-10-06T22:47:19.807Z,15.88
2022-10-06T22:49:53.684Z,11.00
2022-10-06T22:52:41.763Z,14.52
2022-10-06T22:55:22.772Z,10.05
2022-10-06T22:58:03.843Z,13.65
2022-10-06T23:00:43.820Z,10.95
2022-10-06T23:03:31.850Z,8.65
2022-10-06T23:06:06.163Z,12.55
2022-10-06T23:08:53.773Z,17.08
2022-10-06T23:11:28.028Z,8.45
2022-10-06T23:14:15.777Z,9.60
2022-10-06T23:16:49.841Z,7.00
2022-10-06T23:19:37.811Z,10.18
2022-10-06T23:22:18.783Z,11.98
2022-10-06T23:24:59.840Z,9.75
2022-10-06T23:27:40.891Z,10.77
2022-10-06T23:30:28.764Z,12.10
2022-10-06T23:33:02.989Z,10.95
2022-10-06T23:35:50.790Z,17.75
2022-10-06T23:38:24.819Z,10.32
2022-10-06T23:41:12.778Z,8.25
2022-10-06T23:43:46.813Z,13.57
2022-10-06T23:46:34.778Z,10.25
2022-10-06T23:49:08.739Z,14.52
2022-10-06T23:51:56.800Z,7.22
2022-10-06T23:54:37.777Z,9.02
2022-10-06T23:57:18.858Z,6.80
2022-10-06T23:59:58.783Z,9.27
